createdAt,value
2023-04-25T00:01:14.257Z,13.55
2023-04-25T00:11:17.303Z,13.42
2023-04-25T00:21:22.110Z,13.28
2023-04-25T00:31:25.103Z,13.14
2023-04-25T00:41:31.863Z,13.01
2023-04-25T00:51:35.268Z,12.87
2023-04-25T01:01:40.562Z,12.75
2023-04-25T01:11:43.529Z,12.62
2023-04-25T01:21:48.221Z,12.50
2023-04-25T01:31:53.548Z,12.38
2023-04-25T01:41:58.444Z,12.25
2023-04-25T01:52:01.321Z,12.14
2023-04-25T02:02:05.534Z,12.03
2023-04-25T02:12:09.791Z,11.95
2023-04-25T02:22:14.651Z,11.98
2023-04-25T02:32:17.640Z,12.15
2023-04-25T02:42:21.837Z,12.40
2023-04-25T02:52:24.713Z,12.75
2023-04-25T03:02:28.998Z,13.17
2023-04-25T03:12:31.868Z,13.63
2023-04-25T03:22:36.374Z,14.12
2023-04-25T03:32:39.481Z,14.60
2023-04-25T03:42:45.143Z,15.07
2023-04-25T03:52:48.173Z,15.56
2023-04-25T04:02:52.878Z,16.00
2023-04-25T04:12:56.194Z,16.48
2023-04-25T04:23:00.589Z,16.96
2023-04-25T04:33:05.035Z,17.43
2023-04-25T04:43:11.388Z,17.87
2023-04-25T04:53:15.500Z,18.28
2023-04-25T05:03:20.240Z,18.66
2023-04-25T05:13:23.209Z,18.99
2023-04-25T05:23:29.152Z,19.31
2023-04-25T05:33:32.025Z,19.63
2023-04-25T05:43:36.940Z,19.90
2023-04-25T05:53:39.867Z,20.21
2023-04-25T06:03:44.473Z,20.51
2023-04-25T06:13:47.772Z,20.82
2023-04-25T06:23:52.374Z,21.05
2023-04-25T06:33:56.015Z,21.28
2023-04-25T06:44:00.405Z,21.51
2023-04-25T06:54:05.279Z,21.72
2023-04-25T07:04:09.717Z,21.83
2023-04-25T07:14:12.848Z,21.90
2023-04-25T07:24:17.219Z,21.96
2023-04-25T07:34:20.085Z,22.02
2023-04-25T07:44:24.430Z,22.04
2023-04-25T07:54:27.625Z,22.03
2023-04-25T08:04:32.299Z,22.03
2023-04-25T08:14:38.370Z,22.03
2023-04-25T08:24:42.853Z,22.05
2023-04-25T08:34:51.857Z,22.05
2023-04-25T08:44:57.644Z,22.06
2023-04-25T08:55:02.785Z,22.10
2023-04-25T09:05:08.096Z,22.13
2023-04-25T09:15:20.542Z,22.19
2023-04-25T09:25:26.786Z,22.20
2023-04-25T09:35:29.905Z,22.16
2023-04-25T09:45:43.146Z,22.08
2023-04-25T09:55:47.342Z,22.00
2023-04-25T10:05:53.974Z,21.91
2023-04-25T10:15:59.229Z,21.84
2023-04-25T10:26:03.961Z,21.75
2023-04-25T10:36:19.042Z,21.62
2023-04-25T10:46:28.399Z,21.53
2023-04-25T10:56:33.259Z,21.49
2023-04-25T11:07:05.457Z,21.45
2023-04-25T11:17:08.884Z,21.38
2023-04-25T11:27:19.338Z,21.32
2023-04-25T11:37:23.379Z,21.23
2023-04-25T11:47:32.431Z,21.15
2023-04-25T11:57:40.409Z,21.06
2023-04-25T12:07:45.907Z,20.98
2023-04-25T12:17:49.937Z,20.88
2023-04-25T12:27:54.359Z,20.76
2023-04-25T12:37:57.137Z,20.62
2023-04-25T12:48:03.960Z,20.46
2023-04-25T12:58:07.019Z,20.30
2023-04-25T13:08:11.426Z,20.13
2023-04-25T13:18:14.415Z,19.95
2023-04-25T13:28:18.768Z,19.75
2023-04-25T13:38:23.691Z,19.52
2023-04-25T13:48:28.299Z,19.24
2023-04-25T13:58:31.335Z,18.90
2023-04-25T14:08:36.012Z,18.57
2023-04-25T14:18:38.878Z,18.24
2023-04-25T14:28:43.486Z,17.93
2023-04-25T14:38:47.110Z,17.62
2023-04-25T14:48:51.683Z,17.33
2023-04-25T14:58:54.836Z,17.03
2023-04-25T15:08:59.256Z,16.74
2023-04-25T15:19:05.084Z,16.47
2023-04-25T15:29:09.716Z,16.19
2023-04-25T15:39:13.333Z,15.93
2023-04-25T15:49:19.574Z,15.67
2023-04-25T15:59:24.347Z,15.40
2023-04-25T16:09:28.974Z,15.16
2023-04-25T16:19:34.664Z,14.92
2023-04-25T16:29:39.736Z,14.69
2023-04-25T16:39:48.678Z,14.48
2023-04-25T16:49:53.457Z,14.25
2023-04-25T16:59:57.016Z,14.06
2023-04-25T17:10:01.563Z,13.89
2023-04-25T17:20:08.206Z,13.72
2023-04-25T17:30:13.533Z,13.56
2023-04-25T17:40:18.526Z,13.42
2023-04-25T17:50:23.351Z,13.29
2023-04-25T18:00:26.656Z,13.12
2023-04-25T18:10:34.255Z,13.00
2023-04-25T18:20:38.368Z,12.87
2023-04-25T18:30:44.706Z,12.69
2023-04-25T18:40:59.181Z,12.58
2023-04-25T18:51:10.497Z,12.47
2023-04-25T19:01:17.932Z,12.37
2023-04-25T19:11:25.806Z,12.27
2023-04-25T19:21:28.851Z,12.16
2023-04-25T19:31:33.851Z,12.04
2023-04-25T19:41:40.484Z,11.96
2023-04-25T19:51:46.439Z,11.89
2023-04-25T20:01:49.843Z,11.82
2023-04-25T20:11:55.094Z,11.75
2023-04-25T20:21:57.956Z,11.68
2023-04-25T20:32:03.651Z,11.60
2023-04-25T20:42:06.692Z,11.56
2023-04-25T20:52:11.033Z,11.52
2023-04-25T21:02:17.774Z,11.48
2023-04-25T21:12:22.439Z,11.46
2023-04-25T21:22:25.956Z,11.43
2023-04-25T21:32:30.383Z,11.41
2023-04-25T21:42:33.250Z,11.39
2023-04-25T21:52:37.725Z,11.37
2023-04-25T22:02:40.955Z,11.36
2023-04-25T22:12:45.489Z,11.31
2023-04-25T22:22:49.793Z,11.29
2023-04-25T22:32:54.213Z,11.26
2023-04-25T22:42:58.286Z,11.24
2023-04-25T22:53:04.302Z,11.23
2023-04-25T23:03:08.120Z,11.19
2023-04-25T23:13:12.640Z,11.18
2023-04-25T23:23:15.530Z,11.16
2023-04-25T23:33:20.025Z,11.12
2023-04-25T23:43:22.890Z,11.11
2023-04-25T23:53:27.186Z,11.10
